createdAt,value
2018-06-20T00:00:32.878Z,22.20
2018-06-20T00:03:01.270Z,22.10
2018-06-20T00:05:29.787Z,22.10
2018-06-20T00:07:58.329Z,22.10
2018-06-20T00:10:26.729Z,22.00
2018-06-20T00:12:55.096Z,22.00
2018-06-20T00:15:23.588Z,22.00
2018-06-20T00:17:52.043Z,22.00
2018-06-20T00:20:20.453Z,22.00
2018-06-20T00:22:48.831Z,22.00
2018-06-20T00:27:45.279Z,22.00
2018-06-20T00:30:13.733Z,21.90
2018-06-20T00:32:42.146Z,21.90
2018-06-20T00:35:10.531Z,21.80
2018-06-20T00:37:38.857Z,21.80
2018-06-20T00:40:07.259Z,21.80
2018-06-20T00:42:35.610Z,21.70
2018-06-20T00:45:04.983Z,21.70
2018-06-20T00:47:33.537Z,21.70
2018-06-20T00:50:02.061Z,21.60
2018-06-20T00:52:30.482Z,21.60
2018-06-20T00:54:59.001Z,21.60
2018-06-20T00:57:27.439Z,21.50
2018-06-20T00:59:56.018Z,21.60
2018-06-20T01:02:24.405Z,21.50
2018-06-20T01:04:52.851Z,21.50
2018-06-20T01:07:21.460Z,21.40
2018-06-20T01:09:50.145Z,21.40
2018-06-20T01:12:18.632Z,21.40
2018-06-20T01:14:47.082Z,21.40
2018-06-20T01:17:15.653Z,21.30
2018-06-20T01:19:44.038Z,21.30
2018-06-20T01:22:12.419Z,21.30
2018-06-20T01:24:40.901Z,21.30
2018-06-20T01:27:09.387Z,21.20
2018-06-20T01:29:38.027Z,21.20
2018-06-20T01:32:06.374Z,21.20
2018-06-20T01:34:34.750Z,21.10
2018-06-20T01:37:03.101Z,21.10
2018-06-20T01:39:31.485Z,21.10
2018-06-20T01:41:59.931Z,21.10
2018-06-20T01:44:28.405Z,21.10
2018-06-20T01:46:56.745Z,21.00
2018-06-20T01:49:25.089Z,21.00
2018-06-20T01:51:53.475Z,21.00
2018-06-20T01:54:21.894Z,21.00
2018-06-20T01:56:50.276Z,20.90
2018-06-20T01:59:18.682Z,21.00
2018-06-20T02:01:47.081Z,21.00
2018-06-20T02:04:15.522Z,20.90
2018-06-20T02:06:43.885Z,20.90
2018-06-20T02:09:12.249Z,20.90
2018-06-20T02:11:40.630Z,20.80
2018-06-20T02:14:08.969Z,20.80
2018-06-20T02:16:37.370Z,20.80
2018-06-20T02:19:05.701Z,20.70
2018-06-20T02:21:34.205Z,20.70
2018-06-20T02:24:02.552Z,20.70
2018-06-20T02:26:31.081Z,20.70
2018-06-20T02:28:59.422Z,20.60
2018-06-20T02:31:27.754Z,20.60
2018-06-20T02:33:56.099Z,20.60
2018-06-20T02:36:29.877Z,20.60
2018-06-20T02:38:58.230Z,20.50
2018-06-20T02:41:26.609Z,20.50
2018-06-20T02:43:54.977Z,20.60
2018-06-20T02:46:23.483Z,20.50
2018-06-20T02:48:51.867Z,20.50
2018-06-20T02:51:20.240Z,20.60
2018-06-20T02:53:48.604Z,20.50
2018-06-20T02:56:16.937Z,20.60
2018-06-20T02:58:45.313Z,20.60
2018-06-20T03:01:13.683Z,20.50
2018-06-20T03:03:42.213Z,20.60
2018-06-20T03:06:10.688Z,20.60
2018-06-20T03:08:39.134Z,20.60
2018-06-20T03:11:07.463Z,20.60
2018-06-20T03:13:35.938Z,20.60
2018-06-20T03:16:04.339Z,20.50
2018-06-20T03:18:32.674Z,20.50
2018-06-20T03:21:01.171Z,20.50
2018-06-20T03:23:29.552Z,20.50
2018-06-20T03:25:57.905Z,20.50
2018-06-20T03:28:26.473Z,20.50
2018-06-20T03:30:54.817Z,20.40
2018-06-20T03:33:23.182Z,20.40
2018-06-20T03:35:51.522Z,20.30
2018-06-20T03:38:19.865Z,20.30
2018-06-20T03:40:48.213Z,20.30
2018-06-20T03:43:16.542Z,20.30
2018-06-20T03:45:44.953Z,20.30
2018-06-20T03:48:13.347Z,20.20
2018-06-20T03:50:41.817Z,20.20
2018-06-20T03:53:10.502Z,20.20
2018-06-20T03:55:38.955Z,20.20
2018-06-20T03:58:07.334Z,20.20
2018-06-20T04:00:35.837Z,20.20
2018-06-20T04:03:04.221Z,20.20
2018-06-20T04:05:32.558Z,20.20
2018-06-20T04:08:00.912Z,20.20
2018-06-20T04:10:29.275Z,20.20
2018-06-20T04:12:57.622Z,20.20
2018-06-20T04:15:26.006Z,20.20
2018-06-20T04:17:54.461Z,20.20
2018-06-20T04:20:22.818Z,20.10
2018-06-20T04:22:51.258Z,20.10
2018-06-20T04:25:19.649Z,20.10
2018-06-20T04:27:48.001Z,20.10
2018-06-20T04:30:16.552Z,20.10
2018-06-20T04:32:45.081Z,20.10
2018-06-20T04:35:13.494Z,20.10
2018-06-20T04:37:41.920Z,20.20
2018-06-20T04:40:10.374Z,20.20
2018-06-20T04:42:38.730Z,20.20
2018-06-20T04:45:07.060Z,20.20
2018-06-20T04:47:35.450Z,20.20
2018-06-20T04:50:03.973Z,20.20
2018-06-20T04:52:32.355Z,20.30
2018-06-20T04:57:28.787Z,20.30
2018-06-20T04:59:57.157Z,20.30
2018-06-20T05:02:25.506Z,20.40
2018-06-20T05:04:53.956Z,20.40
2018-06-20T05:07:22.309Z,20.50
2018-06-20T05:12:18.714Z,20.60
2018-06-20T05:14:47.290Z,20.60
2018-06-20T05:17:15.661Z,20.70
2018-06-20T05:19:44.061Z,20.70
2018-06-20T05:22:12.425Z,20.70
2018-06-20T05:24:40.982Z,20.80
2018-06-20T05:27:09.361Z,20.80
2018-06-20T05:29:37.774Z,20.80
2018-06-20T05:32:06.404Z,20.80
2018-06-20T05:34:34.752Z,20.90
2018-06-20T05:37:03.090Z,20.90
2018-06-20T05:39:31.451Z,21.00
2018-06-20T05:41:59.878Z,21.00
2018-06-20T05:44:28.239Z,21.00
2018-06-20T05:46:56.560Z,21.10
2018-06-20T05:49:25.026Z,21.10
2018-06-20T05:51:53.362Z,21.20
2018-06-20T05:54:21.712Z,21.20
2018-06-20T05:56:50.062Z,21.30
2018-06-20T05:59:18.620Z,21.30
2018-06-20T06:01:47.094Z,21.40
2018-06-20T06:04:15.517Z,21.50
2018-06-20T06:06:43.905Z,21.50
2018-06-20T06:09:12.322Z,21.50
2018-06-20T06:11:40.841Z,21.60
2018-06-20T06:14:09.306Z,21.60
2018-06-20T06:16:37.667Z,21.70
2018-06-20T06:19:06.047Z,21.70
2018-06-20T06:21:34.468Z,21.80
2018-06-20T06:24:02.905Z,21.80
2018-06-20T06:26:31.263Z,21.90
2018-06-20T06:28:59.732Z,21.90
2018-06-20T06:31:28.085Z,22.00
2018-06-20T06:33:56.429Z,22.00
2018-06-20T06:36:24.865Z,22.10
2018-06-20T06:38:53.262Z,22.20
2018-06-20T06:41:21.633Z,22.20
2018-06-20T06:43:50.076Z,22.20
2018-06-20T06:46:18.526Z,22.30
2018-06-20T06:48:47.106Z,22.40
2018-06-20T06:51:15.553Z,22.40
2018-06-20T06:53:43.914Z,22.50
2018-06-20T06:56:12.321Z,22.50
2018-06-20T06:58:40.753Z,22.60
2018-06-20T07:01:09.154Z,22.60
2018-06-20T07:03:37.661Z,22.70
2018-06-20T07:06:06.074Z,22.70
2018-06-20T07:08:34.498Z,22.70
2018-06-20T07:11:02.899Z,22.80
2018-06-20T07:13:31.248Z,22.80
2018-06-20T07:15:59.622Z,22.90
2018-06-20T07:18:28.093Z,22.90
2018-06-20T07:20:56.567Z,23.00
2018-06-20T07:23:24.949Z,23.00
2018-06-20T07:25:53.332Z,23.00
2018-06-20T07:28:21.737Z,23.00
2018-06-20T07:30:50.281Z,23.10
2018-06-20T07:33:18.774Z,23.10
2018-06-20T07:35:47.162Z,23.10
2018-06-20T07:38:15.487Z,23.20
2018-06-20T07:40:43.854Z,23.20
2018-06-20T07:43:12.209Z,23.20
2018-06-20T07:45:40.602Z,23.30
2018-06-20T07:48:08.962Z,23.30
2018-06-20T07:50:37.490Z,23.40
2018-06-20T07:53:06.090Z,23.40
2018-06-20T07:55:34.496Z,23.50
2018-06-20T07:58:02.949Z,23.60
2018-06-20T08:00:36.747Z,23.60
2018-06-20T08:03:21.043Z,23.70
2018-06-20T08:05:54.858Z,23.70
2018-06-20T08:08:28.702Z,23.70
2018-06-20T08:11:02.465Z,23.70
2018-06-20T08:13:36.046Z,23.80
2018-06-20T08:16:09.762Z,23.80
2018-06-20T08:18:43.483Z,23.80
2018-06-20T08:21:11.866Z,23.90
2018-06-20T08:23:40.250Z,23.90
2018-06-20T08:26:08.666Z,24.00
2018-06-20T08:28:37.034Z,24.00
2018-06-20T08:31:05.480Z,24.10
2018-06-20T08:33:33.846Z,24.10
2018-06-20T08:36:02.214Z,24.10
2018-06-20T08:38:30.649Z,24.20
2018-06-20T08:40:59.028Z,24.20
2018-06-20T08:43:27.400Z,24.30
2018-06-20T08:45:55.802Z,24.30
2018-06-20T08:48:24.202Z,24.40
2018-06-20T08:50:52.586Z,24.40
2018-06-20T08:53:20.938Z,24.40
2018-06-20T08:55:49.420Z,24.50
2018-06-20T08:58:17.796Z,24.60
2018-06-20T09:00:51.670Z,24.70
2018-06-20T09:03:21.829Z,24.70
2018-06-20T09:05:55.715Z,24.80
2018-06-20T09:08:29.424Z,24.80
2018-06-20T09:11:03.043Z,24.80
2018-06-20T09:13:36.721Z,24.80
2018-06-20T09:16:10.578Z,24.90
2018-06-20T09:18:44.412Z,24.90
2018-06-20T09:21:12.780Z,25.00
2018-06-20T09:23:41.221Z,25.00
2018-06-20T09:26:09.630Z,25.10
2018-06-20T09:28:37.976Z,25.10
2018-06-20T09:31:06.489Z,25.10
2018-06-20T09:33:34.830Z,25.10
2018-06-20T09:36:03.278Z,25.20
2018-06-20T09:38:31.744Z,25.20
2018-06-20T09:41:00.322Z,25.30
2018-06-20T09:43:28.680Z,25.30
2018-06-20T09:45:57.057Z,25.30
2018-06-20T09:48:25.438Z,25.40
2018-06-20T09:50:56.684Z,25.50
2018-06-20T09:53:25.449Z,25.60
2018-06-20T09:55:53.822Z,25.70
2018-06-20T09:58:22.521Z,25.80
2018-06-20T10:00:56.187Z,25.90
2018-06-20T10:03:29.836Z,25.90
2018-06-20T10:06:03.881Z,26.00
2018-06-20T10:08:37.728Z,26.10
2018-06-20T10:11:11.568Z,26.20
2018-06-20T10:13:46.179Z,26.30
2018-06-20T10:16:14.965Z,26.40
2018-06-20T10:18:43.455Z,26.50
2018-06-20T10:21:12.223Z,26.60
2018-06-20T10:23:40.712Z,26.60
2018-06-20T10:26:09.242Z,26.70
2018-06-20T10:28:37.707Z,26.80
2018-06-20T10:31:06.345Z,26.80
2018-06-20T10:33:34.714Z,26.80
2018-06-20T10:36:03.093Z,26.80
2018-06-20T10:38:31.453Z,26.90
2018-06-20T10:40:59.855Z,27.00
2018-06-20T10:43:28.201Z,27.10
2018-06-20T10:46:01.922Z,27.20
2018-06-20T10:48:30.355Z,27.30
2018-06-20T10:50:58.802Z,27.30
2018-06-20T10:53:27.249Z,27.50
2018-06-20T10:55:55.855Z,27.60
2018-06-20T10:58:29.567Z,27.70
2018-06-20T11:01:03.370Z,27.70
2018-06-20T11:03:37.145Z,27.80
2018-06-20T11:06:10.985Z,27.90
2018-06-20T11:08:44.762Z,28.00
2018-06-20T11:11:18.586Z,28.10
2018-06-20T11:13:47.717Z,28.10
2018-06-20T11:16:16.070Z,28.20
2018-06-20T11:18:48.078Z,28.40
2018-06-20T11:21:16.462Z,28.50
2018-06-20T11:23:44.950Z,28.60
2018-06-20T11:26:13.337Z,28.70
2018-06-20T11:28:41.789Z,28.90
2018-06-20T11:31:10.597Z,29.00
2018-06-20T11:33:38.997Z,29.20
2018-06-20T11:36:07.454Z,29.30
2018-06-20T11:38:35.841Z,29.40
2018-06-20T11:41:04.248Z,29.50
2018-06-20T11:43:32.701Z,29.60
2018-06-20T11:47:06.155Z,29.70
2018-06-20T11:52:06.901Z,29.90
2018-06-20T11:54:35.278Z,30.00
2018-06-20T12:00:36.946Z,30.30
2018-06-20T12:03:10.801Z,30.40
2018-06-20T12:05:44.671Z,30.40
2018-06-20T12:08:18.574Z,30.50
2018-06-20T12:10:52.582Z,30.60
2018-06-20T12:13:26.444Z,30.70
2018-06-20T12:16:00.282Z,30.80
2018-06-20T12:18:34.066Z,30.90
2018-06-20T12:21:07.930Z,31.00
2018-06-20T12:23:41.635Z,31.10
2018-06-20T12:26:15.421Z,31.10
2018-06-20T12:28:49.195Z,31.20
2018-06-20T12:31:22.999Z,31.30
2018-06-20T12:33:56.774Z,31.40
2018-06-20T12:36:30.596Z,31.10
2018-06-20T12:39:01.041Z,31.10
2018-06-20T12:41:35.740Z,31.00
2018-06-20T12:44:10.390Z,31.20
2018-06-20T12:47:46.870Z,31.30
2018-06-20T12:50:27.689Z,31.40
2018-06-20T12:52:56.622Z,31.50
2018-06-20T12:55:26.026Z,31.60
2018-06-20T12:57:55.220Z,31.70
2018-06-20T13:00:23.751Z,31.80
2018-06-20T13:02:52.261Z,31.90
2018-06-20T13:05:20.899Z,32.10
2018-06-20T13:07:49.320Z,32.10
2018-06-20T13:10:17.698Z,32.20
2018-06-20T13:12:46.094Z,32.30
2018-06-20T13:15:14.499Z,32.50
2018-06-20T13:17:42.916Z,32.60
2018-06-20T13:20:11.381Z,32.70
2018-06-20T13:22:39.683Z,32.80
2018-06-20T13:25:08.079Z,32.90
2018-06-20T13:27:41.674Z,32.90
2018-06-20T13:30:11.203Z,32.90
2018-06-20T13:32:45.127Z,33.00
2018-06-20T13:35:19.111Z,33.10
2018-06-20T13:37:52.889Z,33.20
2018-06-20T13:40:26.541Z,33.30
2018-06-20T13:45:33.754Z,33.50
2018-06-20T13:48:07.709Z,33.60
2018-06-20T13:50:36.404Z,33.60
2018-06-20T13:53:04.812Z,33.70
2018-06-20T13:55:33.172Z,33.80
2018-06-20T13:58:01.733Z,33.90
2018-06-20T14:00:30.166Z,34.00
2018-06-20T14:02:58.545Z,34.00
2018-06-20T14:05:26.920Z,34.00
2018-06-20T14:07:55.486Z,34.10
2018-06-20T14:10:24.084Z,34.20
2018-06-20T14:12:52.510Z,34.30
2018-06-20T14:15:20.994Z,34.40
2018-06-20T14:17:49.462Z,34.40
2018-06-20T14:20:23.278Z,34.40
2018-06-20T14:22:51.868Z,34.40
2018-06-20T14:25:20.346Z,34.40
2018-06-20T14:27:48.741Z,34.40
2018-06-20T14:30:22.637Z,34.50
2018-06-20T14:32:56.330Z,34.50
2018-06-20T14:35:30.133Z,34.50
2018-06-20T14:38:03.937Z,34.50
2018-06-20T14:40:37.558Z,34.50
2018-06-20T14:43:11.343Z,34.60
2018-06-20T14:45:45.153Z,34.70
2018-06-20T14:48:13.699Z,34.60
2018-06-20T14:50:42.323Z,34.60
2018-06-20T14:53:10.718Z,34.50
2018-06-20T14:55:39.111Z,34.60
2018-06-20T14:58:07.490Z,34.60
2018-06-20T15:00:35.958Z,34.60
2018-06-20T15:03:04.557Z,34.60
2018-06-20T15:05:33.155Z,34.60
2018-06-20T15:08:01.607Z,34.60
2018-06-20T15:10:30.278Z,34.60
2018-06-20T15:12:58.742Z,34.60
2018-06-20T15:15:27.129Z,34.60
2018-06-20T15:17:55.542Z,34.50
2018-06-20T15:20:23.984Z,34.50
2018-06-20T15:22:52.402Z,34.50
2018-06-20T15:25:26.003Z,34.60
2018-06-20T15:27:59.664Z,34.50
2018-06-20T15:30:33.336Z,34.50
2018-06-20T15:33:07.177Z,34.60
2018-06-20T15:36:41.662Z,34.60
2018-06-20T15:39:10.133Z,34.50
2018-06-20T15:41:38.587Z,34.50
2018-06-20T15:44:07.357Z,34.50
2018-06-20T15:46:35.991Z,34.50
2018-06-20T15:49:05.018Z,34.50
2018-06-20T15:51:33.623Z,34.50
2018-06-20T15:54:02.013Z,34.50
2018-06-20T15:56:30.549Z,34.50
2018-06-20T15:58:59.053Z,34.50
2018-06-20T16:01:27.606Z,34.50
2018-06-20T16:03:56.080Z,34.40
2018-06-20T16:06:24.654Z,34.30
2018-06-20T16:08:58.493Z,34.20
2018-06-20T16:11:27.098Z,34.10
2018-06-20T16:13:55.542Z,34.10
2018-06-20T16:16:24.011Z,34.00
2018-06-20T16:18:57.803Z,33.80
2018-06-20T16:21:31.756Z,33.80
2018-06-20T16:24:05.485Z,33.90
2018-06-20T16:26:39.335Z,33.80
2018-06-20T16:29:13.061Z,33.70
2018-06-20T16:31:41.506Z,33.60
2018-06-20T16:34:09.918Z,33.70
2018-06-20T16:36:38.575Z,33.60
2018-06-20T16:39:07.733Z,33.40
2018-06-20T16:41:36.235Z,33.30
2018-06-20T16:44:04.676Z,33.40
2018-06-20T16:46:33.061Z,33.40
2018-06-20T16:49:01.625Z,33.40
2018-06-20T16:51:29.957Z,33.50
2018-06-20T16:53:58.426Z,33.50
2018-06-20T16:56:26.874Z,33.40
2018-06-20T16:58:55.306Z,33.40
2018-06-20T17:01:29.215Z,33.40
2018-06-20T17:03:57.642Z,33.40
2018-06-20T17:06:26.114Z,33.30
2018-06-20T17:08:54.595Z,33.30
2018-06-20T17:11:23.919Z,33.20
2018-06-20T17:13:57.571Z,33.10
2018-06-20T17:16:31.299Z,33.10
2018-06-20T17:19:05.072Z,33.00
2018-06-20T17:21:39.034Z,33.00
2018-06-20T17:24:12.874Z,32.90
2018-06-20T17:26:41.553Z,32.80
2018-06-20T17:29:09.963Z,32.80
2018-06-20T17:31:38.426Z,32.70
2018-06-20T17:34:06.855Z,32.70
2018-06-20T17:36:35.338Z,32.60
2018-06-20T17:39:05.781Z,32.60
2018-06-20T17:41:34.285Z,32.50
2018-06-20T17:44:02.755Z,32.40
2018-06-20T17:46:31.351Z,32.40
2018-06-20T17:48:59.781Z,32.30
2018-06-20T17:51:28.222Z,32.30
2018-06-20T17:53:56.753Z,32.20
2018-06-20T17:56:25.266Z,32.10
2018-06-20T17:58:53.743Z,32.10
2018-06-20T18:01:22.239Z,32.00
2018-06-20T18:03:50.833Z,32.00
2018-06-20T18:06:24.651Z,31.90
2018-06-20T18:08:58.446Z,31.90
2018-06-20T18:11:32.318Z,31.80
2018-06-20T18:14:06.082Z,31.70
2018-06-20T18:16:39.854Z,31.70
2018-06-20T18:19:08.274Z,31.60
2018-06-20T18:21:36.830Z,31.60
2018-06-20T18:24:05.501Z,31.60
2018-06-20T18:26:34.077Z,31.50
2018-06-20T18:29:02.474Z,31.50
2018-06-20T18:31:31.012Z,31.40
2018-06-20T18:33:59.492Z,31.40
2018-06-20T18:36:27.918Z,31.40
2018-06-20T18:38:56.377Z,31.30
2018-06-20T18:41:25.065Z,31.30
2018-06-20T18:43:53.755Z,31.20
2018-06-20T18:46:22.358Z,31.10
2018-06-20T18:48:50.752Z,31.10
2018-06-20T18:51:19.211Z,31.00
2018-06-20T18:53:47.613Z,31.00
2018-06-20T18:56:16.065Z,30.90
2018-06-20T18:58:49.971Z,30.90
2018-06-20T19:01:23.774Z,30.80
2018-06-20T19:03:57.749Z,30.70
2018-06-20T19:06:31.610Z,30.60
2018-06-20T19:09:04.426Z,30.50
2018-06-20T19:11:32.866Z,30.40
2018-06-20T19:14:01.311Z,30.30
2018-06-20T19:16:29.818Z,30.20
2018-06-20T19:18:58.255Z,30.10
2018-06-20T19:21:26.678Z,30.00
2018-06-20T19:23:55.139Z,29.90
2018-06-20T19:26:23.710Z,29.80
2018-06-20T19:28:52.266Z,29.70
2018-06-20T19:31:20.688Z,29.60
2018-06-20T19:33:49.089Z,29.50
2018-06-20T19:36:17.760Z,29.40
2018-06-20T19:38:46.231Z,29.40
2018-06-20T19:41:14.746Z,29.30
2018-06-20T19:46:16.998Z,29.10
2018-06-20T19:48:45.608Z,29.00
2018-06-20T19:51:14.482Z,28.90
2018-06-20T19:53:43.263Z,28.90
2018-06-20T19:56:11.675Z,28.90
2018-06-20T19:58:40.203Z,28.80
2018-06-20T20:01:08.792Z,28.70
2018-06-20T20:03:37.362Z,28.60
2018-06-20T20:06:06.103Z,28.60
2018-06-20T20:08:34.688Z,28.50
2018-06-20T20:11:03.170Z,28.50
2018-06-20T20:13:31.762Z,28.40
2018-06-20T20:16:00.339Z,28.30
2018-06-20T20:18:28.805Z,28.30
2018-06-20T20:20:57.329Z,28.20
2018-06-20T20:23:25.976Z,28.20
2018-06-20T20:25:54.442Z,28.10
2018-06-20T20:28:22.878Z,28.10
2018-06-20T20:30:51.306Z,28.00
2018-06-20T20:33:19.822Z,28.00
2018-06-20T20:35:48.399Z,27.90
2018-06-20T20:38:17.019Z,27.90
2018-06-20T20:40:45.493Z,27.80
2018-06-20T20:43:13.945Z,27.80
2018-06-20T20:45:42.413Z,27.70
2018-06-20T20:48:10.968Z,27.70
2018-06-20T20:50:39.526Z,27.70
2018-06-20T20:53:07.972Z,27.70
2018-06-20T20:55:36.588Z,27.70
2018-06-20T20:58:05.274Z,27.60
2018-06-20T21:00:33.713Z,27.60
2018-06-20T21:03:02.124Z,27.50
2018-06-20T21:05:30.607Z,27.40
2018-06-20T21:07:59.099Z,27.40
2018-06-20T21:10:27.522Z,27.40
2018-06-20T21:12:55.936Z,27.30
2018-06-20T21:15:24.334Z,27.30
2018-06-20T21:17:52.875Z,27.30
2018-06-20T21:20:21.275Z,27.30
2018-06-20T21:22:49.840Z,27.40
2018-06-20T21:25:18.373Z,27.40
2018-06-20T21:27:46.910Z,27.40
2018-06-20T21:30:15.433Z,27.30
2018-06-20T21:32:43.885Z,27.20
2018-06-20T21:35:12.281Z,27.20
2018-06-20T21:37:40.665Z,27.10
2018-06-20T21:40:11.184Z,27.10
2018-06-20T21:42:39.537Z,27.00
2018-06-20T21:45:08.237Z,26.90
2018-06-20T21:47:36.899Z,26.90
2018-06-20T21:50:05.522Z,26.90
2018-06-20T21:52:33.910Z,26.80
2018-06-20T21:55:02.377Z,26.80
2018-06-20T21:57:30.831Z,26.70
2018-06-20T21:59:59.475Z,26.70
2018-06-20T22:02:27.843Z,26.70
2018-06-20T22:04:56.204Z,26.60
2018-06-20T22:07:24.746Z,26.60
2018-06-20T22:09:53.440Z,26.50
2018-06-20T22:12:22.014Z,26.50
2018-06-20T22:14:50.591Z,26.50
2018-06-20T22:17:18.938Z,26.40
2018-06-20T22:19:47.321Z,26.40
2018-06-20T22:22:15.730Z,26.40
2018-06-20T22:24:44.441Z,26.40
2018-06-20T22:27:12.950Z,26.30
2018-06-20T22:29:41.372Z,26.20
2018-06-20T22:32:09.825Z,26.20
2018-06-20T22:34:38.332Z,26.10
2018-06-20T22:37:06.741Z,26.10
2018-06-20T22:39:35.089Z,26.10
2018-06-20T22:42:03.610Z,26.00
2018-06-20T22:44:32.066Z,26.00
2018-06-20T22:47:00.468Z,26.00
2018-06-20T22:49:29.033Z,25.90
2018-06-20T22:51:57.516Z,25.90
2018-06-20T22:54:26.037Z,25.80
2018-06-20T22:56:54.565Z,25.80
2018-06-20T22:59:23.124Z,25.80
2018-06-20T23:01:51.854Z,25.80
2018-06-20T23:04:20.186Z,25.70
2018-06-20T23:06:48.526Z,25.70
2018-06-20T23:09:16.979Z,25.60
2018-06-20T23:11:46.290Z,25.60
2018-06-20T23:14:14.758Z,25.60
2018-06-20T23:16:43.418Z,25.50
2018-06-20T23:19:12.315Z,25.50
2018-06-20T23:21:41.805Z,25.50
2018-06-20T23:24:10.204Z,25.40
2018-06-20T23:26:38.782Z,25.40
2018-06-20T23:29:07.350Z,25.40
2018-06-20T23:31:35.769Z,25.30
2018-06-20T23:34:04.170Z,25.30
2018-06-20T23:36:32.623Z,25.30
2018-06-20T23:39:00.979Z,25.30
2018-06-20T23:41:29.327Z,25.30
2018-06-20T23:43:57.800Z,25.20
2018-06-20T23:46:26.189Z,25.20
2018-06-20T23:48:54.566Z,25.20
2018-06-20T23:51:23.059Z,25.10
2018-06-20T23:53:51.411Z,25.10
2018-06-20T23:56:19.758Z,25.20
2018-06-20T23:58:48.156Z,25.20
